createdAt,value
2023-02-14T00:00:48.627Z,5.82
2023-02-14T00:03:15.396Z,6.28
2023-02-14T00:05:42.022Z,6.03
2023-02-14T00:08:08.511Z,5.78
2023-02-14T00:10:35.080Z,5.38
2023-02-14T00:13:01.679Z,5.45
2023-02-14T00:15:28.208Z,6.35
2023-02-14T00:17:59.515Z,6.68
2023-02-14T00:20:28.111Z,6.47
2023-02-14T00:22:54.886Z,7.28
2023-02-14T00:25:21.699Z,6.50
2023-02-14T00:27:48.359Z,6.45
2023-02-14T00:30:15.263Z,5.57
2023-02-14T00:32:42.630Z,5.82
2023-02-14T00:35:09.944Z,6.03
2023-02-14T00:37:36.927Z,6.45
2023-02-14T00:40:05.596Z,6.50
2023-02-14T00:42:32.102Z,6.13
2023-02-14T00:44:58.619Z,7.18
2023-02-14T00:47:25.247Z,6.00
2023-02-14T00:49:51.812Z,5.97
2023-02-14T00:52:18.466Z,6.82
2023-02-14T00:54:45.230Z,6.63
2023-02-14T00:57:14.027Z,8.15
2023-02-14T00:59:40.611Z,7.10
2023-02-14T01:02:07.311Z,7.35
2023-02-14T01:04:34.387Z,6.55
2023-02-14T01:07:00.981Z,7.18
2023-02-14T01:09:27.804Z,7.43
2023-02-14T01:11:54.323Z,7.82
2023-02-14T01:14:21.014Z,7.13
2023-02-14T01:16:49.394Z,7.68
2023-02-14T01:19:16.694Z,8.50
2023-02-14T01:21:43.779Z,7.38
2023-02-14T01:24:12.031Z,7.78
2023-02-14T01:26:39.393Z,7.18
2023-02-14T01:29:06.607Z,8.57
2023-02-14T01:31:35.403Z,8.00
2023-02-14T01:34:02.616Z,8.48
2023-02-14T01:36:37.317Z,8.25
2023-02-14T01:39:10.950Z,7.78
2023-02-14T01:41:38.900Z,7.90
2023-02-14T01:44:27.368Z,7.88
2023-02-14T01:46:55.242Z,8.18
2023-02-14T01:49:25.415Z,8.73
2023-02-14T01:52:06.263Z,7.30
2023-02-14T01:54:36.031Z,7.80
2023-02-14T01:57:06.437Z,6.95
2023-02-14T01:59:38.694Z,7.55
2023-02-14T02:02:06.002Z,8.88
2023-02-14T02:04:35.754Z,7.97
2023-02-14T02:07:09.281Z,8.25
2023-02-14T02:09:43.578Z,8.50
2023-02-14T02:12:10.407Z,8.57
2023-02-14T02:14:37.312Z,7.57
2023-02-14T02:17:16.642Z,7.97
2023-02-14T02:20:01.965Z,7.85
2023-02-14T02:23:07.055Z,7.47
2023-02-14T02:26:17.282Z,6.13
2023-02-14T02:29:21.855Z,6.93
2023-02-14T02:31:48.752Z,7.38
2023-02-14T02:34:30.035Z,8.20
2023-02-14T02:37:11.723Z,7.53
2023-02-14T02:40:00.857Z,8.48
2023-02-14T02:42:54.510Z,8.07
2023-02-14T02:45:24.035Z,7.63
2023-02-14T02:48:10.748Z,9.10
2023-02-14T02:51:00.355Z,7.10
2023-02-14T02:53:30.160Z,7.97
2023-02-14T02:56:21.403Z,7.72
2023-02-14T02:59:00.189Z,7.18
2023-02-14T03:01:35.380Z,9.77
2023-02-14T03:04:30.993Z,8.70
2023-02-14T03:06:59.958Z,10.18
2023-02-14T03:09:28.119Z,7.18
2023-02-14T03:12:03.874Z,8.88
2023-02-14T03:14:39.980Z,10.07
2023-02-14T03:17:35.869Z,7.35
2023-02-14T03:20:15.299Z,9.32
2023-02-14T03:23:12.831Z,8.57
2023-02-14T03:25:58.326Z,7.40
2023-02-14T03:28:30.793Z,9.68
2023-02-14T03:31:06.522Z,8.48
2023-02-14T03:33:44.226Z,9.27
2023-02-14T03:36:22.051Z,8.55
2023-02-14T03:39:21.522Z,7.82
2023-02-14T03:41:59.792Z,8.20
2023-02-14T03:44:29.163Z,8.10
2023-02-14T03:47:00.503Z,8.63
2023-02-14T03:49:31.958Z,10.15
2023-02-14T03:52:02.702Z,8.57
2023-02-14T03:54:32.702Z,9.00
2023-02-14T03:57:18.187Z,7.82
2023-02-14T03:59:44.885Z,9.73
2023-02-14T04:02:11.357Z,9.85
2023-02-14T04:04:43.894Z,7.68
2023-02-14T04:07:12.654Z,7.60
2023-02-14T04:09:39.834Z,9.40
2023-02-14T04:12:06.887Z,9.00
2023-02-14T04:14:33.629Z,8.27
2023-02-14T04:17:18.601Z,8.75
2023-02-14T04:19:45.151Z,7.95
2023-02-14T04:22:11.765Z,8.55
2023-02-14T04:24:38.603Z,8.68
2023-02-14T04:27:11.179Z,8.80
2023-02-14T04:29:44.321Z,8.57
2023-02-14T04:32:13.919Z,7.28
2023-02-14T04:34:41.064Z,6.80
2023-02-14T04:37:08.397Z,6.80
2023-02-14T04:39:35.537Z,7.65
2023-02-14T04:42:03.453Z,6.95
2023-02-14T04:44:30.063Z,7.40
2023-02-14T04:46:56.883Z,8.48
2023-02-14T04:49:23.489Z,7.80
2023-02-14T04:51:50.004Z,8.32
2023-02-14T04:54:16.552Z,9.57
2023-02-14T04:56:43.208Z,8.73
2023-02-14T04:59:09.977Z,9.57
2023-02-14T05:01:36.643Z,9.25
2023-02-14T05:04:03.807Z,9.00
2023-02-14T05:06:30.380Z,9.45
2023-02-14T05:08:57.095Z,9.00
2023-02-14T05:11:23.627Z,9.73
2023-02-14T05:13:50.779Z,8.73
2023-02-14T05:16:17.636Z,8.77
2023-02-14T05:18:44.281Z,8.13
2023-02-14T05:21:11.258Z,9.43
2023-02-14T05:23:38.108Z,9.73
2023-02-14T05:26:07.057Z,9.32
2023-02-14T05:28:33.944Z,9.40
2023-02-14T05:31:00.950Z,8.40
2023-02-14T05:33:27.997Z,8.63
2023-02-14T05:35:54.571Z,8.48
2023-02-14T05:38:21.159Z,8.95
2023-02-14T05:40:47.711Z,7.32
2023-02-14T05:43:14.492Z,7.70
2023-02-14T05:45:41.083Z,8.07
2023-02-14T05:48:07.727Z,9.63
2023-02-14T05:50:34.403Z,8.13
2023-02-14T05:53:01.947Z,8.30
2023-02-14T05:55:28.647Z,8.48
2023-02-14T05:57:55.212Z,7.38
2023-02-14T06:00:23.865Z,7.45
2023-02-14T06:02:50.821Z,8.30
2023-02-14T06:05:18.249Z,8.13
2023-02-14T06:07:50.438Z,8.20
2023-02-14T06:10:21.752Z,7.18
2023-02-14T06:12:49.933Z,6.93
2023-02-14T06:15:16.903Z,7.95
2023-02-14T06:17:43.819Z,7.57
2023-02-14T06:20:10.936Z,8.55
2023-02-14T06:22:39.094Z,8.07
2023-02-14T06:25:05.892Z,8.63
2023-02-14T06:27:32.985Z,8.10
2023-02-14T06:29:59.624Z,7.45
2023-02-14T06:32:26.408Z,8.43
2023-02-14T06:34:52.920Z,8.13
2023-02-14T06:37:20.138Z,7.45
2023-02-14T06:39:46.733Z,7.13
2023-02-14T06:42:13.290Z,7.22
2023-02-14T06:44:39.834Z,7.30
2023-02-14T06:47:07.938Z,7.65
2023-02-14T06:49:34.638Z,7.20
2023-02-14T06:52:01.107Z,7.65
2023-02-14T06:54:27.655Z,7.15
2023-02-14T06:56:54.169Z,7.88
2023-02-14T06:59:20.764Z,7.00
2023-02-14T07:01:47.357Z,7.47
2023-02-14T07:04:18.615Z,8.23
2023-02-14T07:06:48.207Z,7.75
2023-02-14T07:09:17.734Z,8.05
2023-02-14T07:11:45.590Z,6.40
2023-02-14T07:14:12.562Z,7.88
2023-02-14T07:16:39.504Z,6.78
2023-02-14T07:19:06.078Z,7.80
2023-02-14T07:21:32.591Z,6.60
2023-02-14T07:23:59.105Z,6.60
2023-02-14T07:26:25.647Z,6.85
2023-02-14T07:28:52.244Z,5.47
2023-02-14T07:31:20.058Z,6.78
2023-02-14T07:33:46.782Z,6.78
2023-02-14T07:36:13.392Z,6.93
2023-02-14T07:38:39.889Z,7.38
2023-02-14T07:41:06.718Z,5.57
2023-02-14T07:43:34.419Z,5.78
2023-02-14T07:46:02.758Z,5.25
2023-02-14T07:48:31.965Z,5.13
2023-02-14T07:51:00.595Z,5.75
2023-02-14T07:53:27.360Z,5.63
2023-02-14T07:55:54.312Z,5.20
2023-02-14T07:58:20.835Z,5.03
2023-02-14T08:00:47.630Z,5.68
2023-02-14T08:03:14.598Z,5.93
2023-02-14T08:05:41.162Z,5.55
2023-02-14T08:08:07.761Z,5.30
2023-02-14T08:10:34.381Z,5.82
2023-02-14T08:13:01.094Z,4.75
2023-02-14T08:15:51.917Z,5.57
2023-02-14T08:18:19.927Z,4.90
2023-02-14T08:20:49.698Z,3.72
2023-02-14T08:23:17.810Z,3.40
2023-02-14T08:25:44.518Z,4.35
2023-02-14T08:28:13.769Z,4.35
2023-02-14T08:30:41.722Z,4.47
2023-02-14T08:33:08.241Z,4.13
2023-02-14T08:35:35.563Z,4.18
2023-02-14T08:38:02.213Z,4.03
2023-02-14T08:40:29.206Z,3.78
2023-02-14T08:42:55.895Z,4.05
2023-02-14T08:45:23.066Z,4.13
2023-02-14T08:47:49.655Z,3.58
2023-02-14T08:50:17.751Z,3.25
2023-02-14T08:52:44.517Z,3.38
2023-02-14T08:55:12.399Z,3.67
2023-02-14T08:57:39.596Z,3.60
2023-02-14T09:00:07.686Z,3.13
2023-02-14T09:02:34.508Z,3.55
2023-02-14T09:05:01.374Z,3.75
2023-02-14T09:07:27.922Z,4.07
2023-02-14T09:09:54.701Z,2.50
2023-02-14T09:12:21.301Z,3.42
2023-02-14T09:14:47.896Z,3.90
2023-02-14T09:17:16.162Z,2.90
2023-02-14T09:19:43.653Z,3.10
2023-02-14T09:22:11.448Z,3.78
2023-02-14T09:24:40.076Z,3.50
2023-02-14T09:27:07.227Z,3.65
2023-02-14T09:29:34.262Z,3.45
2023-02-14T09:32:02.461Z,3.28
2023-02-14T09:34:35.375Z,3.30
2023-02-14T09:37:02.185Z,3.63
2023-02-14T09:39:28.708Z,3.22
2023-02-14T09:42:15.399Z,3.90
2023-02-14T09:44:45.232Z,4.15
2023-02-14T09:47:22.031Z,4.28
2023-02-14T09:49:50.503Z,3.15
2023-02-14T09:52:20.840Z,3.60
2023-02-14T09:54:55.019Z,3.72
2023-02-14T10:00:33.810Z,3.38
2023-02-14T10:03:32.807Z,3.72
2023-02-14T10:06:14.627Z,3.70
2023-02-14T10:08:56.481Z,3.65
2023-02-14T10:11:27.359Z,3.45
2023-02-14T10:14:03.969Z,4.00
2023-02-14T10:16:40.337Z,3.88
2023-02-14T10:19:28.415Z,3.33
2023-02-14T10:22:00.455Z,3.53
2023-02-14T10:24:57.391Z,3.80
2023-02-14T10:27:35.263Z,3.90
2023-02-14T10:30:12.081Z,3.33
2023-02-14T10:32:45.937Z,4.05
2023-02-14T10:35:29.838Z,3.85
2023-02-14T10:38:02.392Z,3.47
2023-02-14T10:40:47.726Z,4.00
2023-02-14T10:43:29.991Z,4.13
2023-02-14T10:46:02.816Z,3.80
2023-02-14T10:48:39.339Z,3.53
2023-02-14T10:51:33.450Z,3.97
2023-02-14T10:54:06.536Z,4.40
2023-02-14T10:56:39.723Z,4.93
2023-02-14T10:59:24.354Z,2.63
2023-02-14T11:01:56.368Z,3.03
2023-02-14T11:04:25.416Z,4.35
2023-02-14T11:06:52.740Z,3.95
2023-02-14T11:09:20.383Z,3.88
2023-02-14T11:11:59.075Z,4.15
2023-02-14T11:14:35.934Z,3.90
2023-02-14T11:17:30.172Z,4.22
2023-02-14T11:20:02.638Z,4.68
2023-02-14T11:22:30.905Z,4.22
2023-02-14T11:25:05.039Z,4.13
2023-02-14T11:30:01.852Z,3.80
2023-02-14T11:32:31.783Z,4.25
2023-02-14T11:35:26.911Z,3.78
2023-02-14T11:37:56.575Z,4.15
2023-02-14T11:40:28.878Z,3.92
2023-02-14T11:43:13.337Z,4.38
2023-02-14T11:45:43.795Z,4.05
2023-02-14T11:48:37.113Z,4.15
2023-02-14T11:51:14.636Z,4.28
2023-02-14T11:53:48.602Z,4.32
2023-02-14T11:56:17.554Z,3.95
2023-02-14T11:58:50.299Z,3.60
2023-02-14T12:01:29.828Z,4.68
2023-02-14T12:04:00.707Z,3.90
2023-02-14T12:06:33.989Z,4.35
2023-02-14T12:09:23.806Z,4.60
2023-02-14T12:12:14.762Z,4.72
2023-02-14T12:14:41.451Z,4.93
2023-02-14T12:17:34.594Z,4.63
2023-02-14T12:20:15.302Z,4.03
2023-02-14T12:23:12.897Z,4.50
2023-02-14T12:25:50.605Z,4.35
2023-02-14T12:28:25.908Z,4.72
2023-02-14T12:30:52.644Z,4.13
2023-02-14T12:33:21.879Z,3.55
2023-02-14T12:36:09.021Z,4.32
2023-02-14T12:38:39.426Z,4.20
2023-02-14T12:41:20.696Z,3.75
2023-02-14T12:43:50.998Z,4.85
2023-02-14T12:46:40.332Z,4.63
2023-02-14T12:49:19.153Z,4.45
2023-02-14T12:51:56.905Z,3.47
2023-02-14T12:54:44.918Z,4.35
2023-02-14T12:57:28.645Z,3.67
2023-02-14T13:00:14.783Z,4.15
2023-02-14T13:02:44.592Z,4.03
2023-02-14T13:05:14.203Z,4.93
2023-02-14T13:07:46.952Z,4.13
2023-02-14T13:10:38.480Z,4.63
2023-02-14T13:13:25.896Z,4.43
2023-02-14T13:16:06.544Z,3.85
2023-02-14T13:18:45.364Z,3.85
2023-02-14T13:21:16.812Z,3.83
2023-02-14T13:23:48.801Z,4.00
2023-02-14T13:26:34.887Z,3.50
2023-02-14T13:29:07.014Z,4.13
2023-02-14T13:31:34.043Z,4.38
2023-02-14T13:34:09.750Z,4.68
2023-02-14T13:36:37.509Z,3.35
2023-02-14T13:39:04.720Z,4.63
2023-02-14T13:41:31.749Z,4.65
2023-02-14T13:44:02.453Z,4.10
2023-02-14T13:46:32.182Z,3.80
2023-02-14T13:49:02.373Z,3.22
2023-02-14T13:52:05.650Z,3.47
2023-02-14T13:54:46.337Z,3.63
2023-02-14T13:57:36.536Z,3.95
2023-02-14T14:00:21.386Z,4.18
2023-02-14T14:02:52.846Z,3.80
2023-02-14T14:05:39.532Z,3.70
2023-02-14T14:08:35.168Z,3.80
2023-02-14T14:11:21.585Z,3.65
2023-02-14T14:13:58.475Z,4.25
2023-02-14T14:16:28.438Z,4.93
2023-02-14T14:19:17.106Z,4.63
2023-02-14T14:21:45.474Z,5.78
2023-02-14T14:24:27.668Z,4.75
2023-02-14T14:26:57.135Z,4.65
2023-02-14T14:29:34.923Z,5.45
2023-02-14T14:32:15.442Z,4.80
2023-02-14T14:34:56.166Z,4.82
2023-02-14T14:37:26.237Z,5.25
2023-02-14T14:40:06.031Z,5.75
2023-02-14T14:42:37.751Z,4.63
2023-02-14T14:45:08.506Z,4.80
2023-02-14T14:47:41.956Z,6.75
2023-02-14T14:50:34.059Z,6.88
2023-02-14T14:53:06.743Z,5.75
2023-02-14T14:55:36.092Z,7.13
2023-02-14T14:58:06.128Z,6.75
2023-02-14T15:00:35.456Z,6.63
2023-02-14T15:03:06.024Z,6.20
2023-02-14T15:05:39.108Z,5.90
2023-02-14T15:08:24.549Z,6.03
2023-02-14T15:11:00.318Z,7.05
2023-02-14T15:13:49.792Z,6.03
2023-02-14T15:16:23.136Z,5.07
2023-02-14T15:18:51.733Z,4.82
2023-02-14T15:21:18.505Z,5.57
2023-02-14T15:23:45.886Z,6.30
2023-02-14T15:26:32.857Z,5.30
2023-02-14T15:29:02.211Z,5.35
2023-02-14T15:31:36.785Z,4.63
2023-02-14T15:34:04.794Z,5.47
2023-02-14T15:36:33.886Z,6.32
2023-02-14T15:39:07.981Z,5.88
2023-02-14T15:44:01.461Z,5.80
2023-02-14T15:46:36.212Z,6.55
2023-02-14T15:49:09.181Z,6.38
2023-02-14T15:51:36.747Z,6.15
2023-02-14T15:54:28.254Z,6.07
2023-02-14T15:56:56.614Z,6.38
2023-02-14T15:59:29.598Z,6.03
2023-02-14T16:02:03.766Z,5.00
2023-02-14T16:07:32.262Z,5.20
2023-02-14T16:10:22.430Z,5.43
2023-02-14T16:12:57.771Z,5.72
2023-02-14T16:15:27.757Z,5.13
2023-02-14T16:17:54.379Z,5.93
2023-02-14T16:20:29.279Z,4.93
2023-02-14T16:23:23.193Z,5.55
2023-02-14T16:25:50.207Z,5.20
2023-02-14T16:28:17.237Z,5.18
2023-02-14T16:30:45.939Z,4.30
2023-02-14T16:33:22.617Z,5.43
2023-02-14T16:35:50.327Z,4.75
2023-02-14T16:38:19.574Z,5.07
2023-02-14T16:40:55.448Z,5.32
2023-02-14T16:43:21.991Z,5.45
2023-02-14T16:45:49.118Z,4.25
2023-02-14T16:48:16.070Z,4.43
2023-02-14T16:50:43.332Z,4.68
2023-02-14T16:53:24.075Z,4.65
2023-02-14T16:55:56.221Z,5.05
2023-02-14T16:58:29.797Z,4.38
2023-02-14T17:00:58.585Z,5.00
2023-02-14T17:03:25.434Z,5.18
2023-02-14T17:05:54.594Z,4.80
2023-02-14T17:08:21.552Z,4.50
2023-02-14T17:10:48.789Z,5.22
2023-02-14T17:13:23.892Z,4.65
2023-02-14T17:15:51.033Z,5.45
2023-02-14T17:18:20.404Z,5.53
2023-02-14T17:20:47.815Z,9.73
2023-02-14T17:23:15.358Z,5.55
2023-02-14T17:25:41.997Z,5.03
2023-02-14T17:28:08.513Z,4.22
2023-02-14T17:30:35.335Z,6.45
2023-02-14T17:33:02.053Z,3.78
2023-02-14T17:35:28.720Z,4.43
2023-02-14T17:37:55.346Z,4.10
2023-02-14T17:40:22.007Z,4.85
2023-02-14T17:42:48.636Z,6.20
2023-02-14T17:45:15.319Z,4.60
2023-02-14T17:47:43.340Z,3.92
2023-02-14T17:50:10.423Z,4.45
2023-02-14T17:52:37.875Z,4.32
2023-02-14T17:55:04.896Z,4.28
2023-02-14T17:57:31.443Z,4.57
2023-02-14T18:00:01.887Z,4.78
2023-02-14T18:02:28.629Z,4.25
2023-02-14T18:04:55.192Z,3.92
2023-02-14T18:07:23.659Z,3.72
2023-02-14T18:09:50.652Z,4.03
2023-02-14T18:12:17.670Z,2.97
2023-02-14T18:14:44.356Z,4.68
2023-02-14T18:17:14.041Z,6.28
2023-02-14T18:19:40.608Z,8.68
2023-02-14T18:22:07.292Z,7.07
2023-02-14T18:24:33.890Z,3.70
2023-02-14T18:27:00.418Z,4.13
2023-02-14T18:29:26.997Z,3.88
2023-02-14T18:31:57.137Z,4.20
2023-02-14T18:34:23.976Z,4.78
2023-02-14T18:36:50.533Z,3.33
2023-02-14T18:39:17.353Z,4.60
2023-02-14T18:41:43.923Z,3.70
2023-02-14T18:44:10.536Z,3.33
2023-02-14T18:46:37.466Z,3.05
2023-02-14T18:49:07.021Z,3.33
2023-02-14T18:51:37.437Z,3.70
2023-02-14T18:54:04.676Z,5.78
2023-02-14T18:56:33.963Z,9.55
2023-02-14T18:59:07.150Z,7.32
2023-02-14T19:01:36.761Z,9.15
2023-02-14T19:04:06.323Z,5.45
2023-02-14T19:06:34.110Z,7.63
2023-02-14T19:09:01.644Z,4.72
2023-02-14T19:11:31.964Z,3.63
2023-02-14T19:14:00.823Z,4.97
2023-02-14T19:16:34.106Z,3.20
2023-02-14T19:19:02.686Z,3.42
2023-02-14T19:21:31.734Z,3.63
2023-02-14T19:23:58.683Z,3.08
2023-02-14T19:26:32.865Z,3.78
2023-02-14T19:31:27.769Z,3.53
2023-02-14T19:33:54.581Z,4.18
2023-02-14T19:36:22.897Z,3.50
2023-02-14T19:38:51.723Z,3.63
2023-02-14T19:41:24.096Z,3.92
2023-02-14T19:43:52.576Z,3.08
2023-02-14T19:46:21.111Z,3.38
2023-02-14T19:48:48.780Z,3.40
2023-02-14T19:51:27.704Z,2.45
2023-02-14T19:53:55.894Z,2.90
2023-02-14T19:56:25.424Z,2.92
2023-02-14T19:58:52.876Z,2.78
2023-02-14T20:01:39.370Z,2.78
2023-02-14T20:04:11.035Z,3.25
2023-02-14T20:06:38.932Z,4.05
2023-02-14T20:09:06.470Z,3.00
2023-02-14T20:11:35.605Z,3.42
2023-02-14T20:14:04.014Z,3.28
2023-02-14T20:16:33.239Z,4.13
2023-02-14T20:19:12.224Z,3.83
2023-02-14T20:21:41.915Z,3.53
2023-02-14T20:24:09.508Z,3.47
2023-02-14T20:26:39.534Z,4.25
2023-02-14T20:29:07.164Z,3.45
2023-02-14T20:31:34.510Z,3.88
2023-02-14T20:34:01.503Z,2.90
2023-02-14T20:36:28.654Z,3.53
2023-02-14T20:38:56.479Z,3.88
2023-02-14T20:41:24.104Z,3.53
2023-02-14T20:43:50.871Z,3.63
2023-02-14T20:46:17.799Z,3.88
2023-02-14T20:48:44.665Z,3.13
2023-02-14T20:51:16.836Z,3.58
2023-02-14T20:53:44.846Z,3.30
2023-02-14T20:56:12.393Z,3.47
2023-02-14T20:58:40.512Z,3.47
2023-02-14T21:01:11.583Z,3.55
2023-02-14T21:03:38.301Z,4.07
2023-02-14T21:06:06.811Z,3.10
2023-02-14T21:08:33.963Z,3.28
2023-02-14T21:11:00.982Z,3.60
2023-02-14T21:13:27.924Z,2.88
2023-02-14T21:15:54.805Z,4.57
2023-02-14T21:18:21.723Z,3.35
2023-02-14T21:20:48.359Z,4.88
2023-02-14T21:23:14.981Z,3.17
2023-02-14T21:25:41.488Z,3.70
2023-02-14T21:28:08.318Z,4.78
2023-02-14T21:30:35.209Z,4.28
2023-02-14T21:33:02.497Z,3.80
2023-02-14T21:35:29.179Z,5.07
2023-02-14T21:37:56.018Z,3.80
2023-02-14T21:40:24.650Z,4.50
2023-02-14T21:42:51.397Z,3.03
2023-02-14T21:45:36.762Z,4.30
2023-02-14T21:48:22.036Z,3.33
2023-02-14T21:50:48.626Z,4.57
2023-02-14T21:53:15.430Z,3.95
2023-02-14T21:55:42.845Z,4.05
2023-02-14T21:58:09.473Z,5.40
2023-02-14T22:00:35.996Z,4.93
2023-02-14T22:03:02.678Z,4.43
2023-02-14T22:05:29.590Z,4.50
2023-02-14T22:07:56.120Z,4.32
2023-02-14T22:10:22.627Z,4.30
2023-02-14T22:12:49.145Z,5.10
2023-02-14T22:15:15.853Z,4.63
2023-02-14T22:17:42.369Z,5.43
2023-02-14T22:20:10.360Z,5.35
2023-02-14T22:22:36.917Z,6.38
2023-02-14T22:25:03.531Z,5.32
2023-02-14T22:27:30.161Z,5.13
2023-02-14T22:29:56.675Z,5.30
2023-02-14T22:32:23.325Z,4.72
2023-02-14T22:34:49.862Z,5.55
2023-02-14T22:37:16.359Z,6.05
2023-02-14T22:39:43.007Z,5.53
2023-02-14T22:42:10.003Z,5.38
2023-02-14T22:44:36.505Z,5.55
2023-02-14T22:47:03.036Z,6.32
2023-02-14T22:49:29.639Z,4.97
2023-02-14T22:51:56.142Z,4.90
2023-02-14T22:54:23.157Z,6.45
2023-02-14T22:56:53.527Z,6.28
2023-02-14T22:59:25.439Z,5.18
2023-02-14T23:01:53.517Z,4.70
2023-02-14T23:04:21.898Z,4.50
2023-02-14T23:06:48.923Z,4.50
2023-02-14T23:09:15.880Z,4.55
2023-02-14T23:11:44.093Z,5.22
2023-02-14T23:14:34.260Z,5.40
2023-02-14T23:17:16.132Z,5.00
2023-02-14T23:20:02.203Z,4.70
2023-02-14T23:22:33.328Z,5.55
2023-02-14T23:25:03.706Z,5.13
2023-02-14T23:27:35.294Z,6.05
2023-02-14T23:30:02.988Z,5.22
2023-02-14T23:32:29.586Z,5.70
2023-02-14T23:34:56.091Z,5.10
2023-02-14T23:37:22.595Z,5.47
2023-02-14T23:39:49.558Z,5.80
2023-02-14T23:42:16.423Z,5.75
2023-02-14T23:44:44.268Z,5.80
2023-02-14T23:47:12.458Z,5.55
2023-02-14T23:49:40.533Z,5.32
2023-02-14T23:52:09.635Z,6.72
2023-02-14T23:54:36.951Z,5.95
2023-02-14T23:57:04.423Z,6.38
2023-02-14T23:59:31.426Z,5.38
